sensor_id;sensor_type;location;lat;lon;timestamp;pressure;altitude;pressure_sealevel;temperature;humidity
65359;BME280;52491;45.900;6.346;2023-04-15T00:01:59;92917.94;;;23.20;27.21
65359;BME280;52491;45.900;6.346;2023-04-15T00:04:25;92919.81;;;23.20;27.50
65359;BME280;52491;45.900;6.346;2023-04-15T00:06:51;92917.16;;;23.20;27.12
65359;BME280;52491;45.900;6.346;2023-04-15T00:09:18;92917.16;;;23.20;27.29
65359;BME280;52491;45.900;6.346;2023-04-15T00:11:44;92914.75;;;23.18;27.21
65359;BME280;52491;45.900;6.346;2023-04-15T00:14:11;92918.50;;;23.17;27.20
65359;BME280;52491;45.900;6.346;2023-04-15T00:16:38;92920.06;;;23.18;27.09
65359;BME280;52491;45.900;6.346;2023-04-15T00:19:03;92917.16;;;23.20;27.04
65359;BME280;52491;45.900;6.346;2023-04-15T00:21:29;92914.47;;;23.20;27.20
65359;BME280;52491;45.900;6.346;2023-04-15T00:23:55;92912.63;;;23.20;27.22
65359;BME280;52491;45.900;6.346;2023-04-15T00:26:21;92915.53;;;23.19;27.18
65359;BME280;52491;45.900;6.346;2023-04-15T00:28:46;92909.44;;;23.18;27.26
65359;BME280;52491;45.900;6.346;2023-04-15T00:31:12;92907.06;;;23.17;27.06
65359;BME280;52491;45.900;6.346;2023-04-15T00:33:38;92905.19;;;23.17;27.17
65359;BME280;52491;45.900;6.346;2023-04-15T00:36:05;92908.94;;;23.16;27.23
65359;BME280;52491;45.900;6.346;2023-04-15T00:38:31;92913.44;;;23.16;27.11
65359;BME280;52491;45.900;6.346;2023-04-15T00:40:57;92914.25;;;23.16;27.39
65359;BME280;52491;45.900;6.346;2023-04-15T00:43:24;92910.50;;;23.17;27.21
65359;BME280;52491;45.900;6.346;2023-04-15T00:45:52;92911.59;;;23.16;27.28
65359;BME280;52491;45.900;6.346;2023-04-15T00:48:19;92915.03;;;23.17;26.90
65359;BME280;52491;45.900;6.346;2023-04-15T00:50:45;92914.25;;;23.16;27.29
65359;BME280;52491;45.900;6.346;2023-04-15T00:53:10;92917.19;;;23.15;27.13
65359;BME280;52491;45.900;6.346;2023-04-15T00:55:36;92914.53;;;23.15;27.13
65359;BME280;52491;45.900;6.346;2023-04-15T00:58:02;92917.19;;;23.15;27.29
65359;BME280;52491;45.900;6.346;2023-04-15T01:00:28;92912.66;;;23.15;26.82
65359;BME280;52491;45.900;6.346;2023-04-15T01:02:54;92914.53;;;23.15;27.12
65359;BME280;52491;45.900;6.346;2023-04-15T01:05:20;92911.84;;;23.15;27.16
65359;BME280;52491;45.900;6.346;2023-04-15T01:07:47;92910.00;;;23.15;27.28
65359;BME280;52491;45.900;6.346;2023-04-15T01:10:13;92904.66;;;23.15;27.19
65359;BME280;52491;45.900;6.346;2023-04-15T01:12:38;92911.84;;;23.15;27.12
65359;BME280;52491;45.900;6.346;2023-04-15T01:15:05;92907.63;;;23.14;27.17
65359;BME280;52491;45.900;6.346;2023-04-15T01:17:31;92915.31;;;23.15;27.15
65359;BME280;52491;45.900;6.346;2023-04-15T01:19:57;92913.44;;;23.16;27.23
65359;BME280;52491;45.900;6.346;2023-04-15T01:22:23;92917.97;;;23.15;27.17
65359;BME280;52491;45.900;6.346;2023-04-15T01:24:56;92919.56;;;23.16;27.17
65359;BME280;52491;45.900;6.346;2023-04-15T01:27:26;92918.75;;;23.16;27.24
65359;BME280;52491;45.900;6.346;2023-04-15T01:29:52;92916.91;;;23.16;27.18
65359;BME280;52491;45.900;6.346;2023-04-15T01:32:18;92923.28;;;23.15;27.27
65359;BME280;52491;45.900;6.346;2023-04-15T01:34:44;92923.28;;;23.15;27.33
65359;BME280;52491;45.900;6.346;2023-04-15T01:37:10;92924.06;;;23.16;27.16
65359;BME280;52491;45.900;6.346;2023-04-15T01:39:35;92921.41;;;23.16;27.25
65359;BME280;52491;45.900;6.346;2023-04-15T01:42:01;92926.47;;;23.17;27.13
65359;BME280;52491;45.900;6.346;2023-04-15T01:44:27;92929.91;;;23.18;27.22
65359;BME280;52491;45.900;6.346;2023-04-15T01:46:53;92928.34;;;23.17;27.09
65359;BME280;52491;45.900;6.346;2023-04-15T01:49:18;92929.34;;;23.21;27.10
65359;BME280;52491;45.900;6.346;2023-04-15T01:51:44;92918.19;;;23.19;27.06
65359;BME280;52491;45.900;6.346;2023-04-15T01:54:09;92924.59;;;23.18;27.21
65359;BME280;52491;45.900;6.346;2023-04-15T01:56:35;92916.91;;;23.16;27.13
65359;BME280;52491;45.900;6.346;2023-04-15T01:59:01;92916.91;;;23.16;27.11
65359;BME280;52491;45.900;6.346;2023-04-15T02:01:28;92920.38;;;23.17;27.20
65359;BME280;52491;45.900;6.346;2023-04-15T02:03:53;92927.47;;;23.21;27.00
65359;BME280;52491;45.900;6.346;2023-04-15T02:06:19;92928.84;;;23.19;27.14
65359;BME280;52491;45.900;6.346;2023-04-15T02:08:45;92924.59;;;23.18;27.22
65359;BME280;52491;45.900;6.346;2023-04-15T02:11:11;92931.78;;;23.17;27.27
65359;BME280;52491;45.900;6.346;2023-04-15T02:13:36;92926.47;;;23.17;27.16
65359;BME280;52491;45.900;6.346;2023-04-15T02:16:03;92929.13;;;23.17;27.21
65359;BME280;52491;45.900;6.346;2023-04-15T02:18:30;92924.59;;;23.18;27.10
65359;BME280;52491;45.900;6.346;2023-04-15T02:20:56;92933.34;;;23.18;27.15
65359;BME280;52491;45.900;6.346;2023-04-15T02:23:23;92923.50;;;23.19;27.17
65359;BME280;52491;45.900;6.346;2023-04-15T02:25:48;92924.59;;;23.18;27.04
65359;BME280;52491;45.900;6.346;2023-04-15T02:28:14;92917.41;;;23.18;27.23
65359;BME280;52491;45.900;6.346;2023-04-15T02:30:39;92924.59;;;23.18;27.15
65359;BME280;52491;45.900;6.346;2023-04-15T02:33:05;92920.84;;;23.19;26.92
65359;BME280;52491;45.900;6.346;2023-04-15T02:35:32;92912.09;;;23.18;27.27
65359;BME280;52491;45.900;6.346;2023-04-15T02:37:57;92923.25;;;23.20;27.32
65359;BME280;52491;45.900;6.346;2023-04-15T02:40:23;92909.16;;;23.20;27.29
65359;BME280;52491;45.900;6.346;2023-04-15T02:42:49;92914.75;;;23.18;27.43
65359;BME280;52491;45.900;6.346;2023-04-15T02:45:15;92917.16;;;23.20;27.54
65359;BME280;52491;45.900;6.346;2023-04-15T02:47:42;92911.53;;;23.21;27.56
65359;BME280;52491;45.900;6.346;2023-04-15T02:50:10;92909.69;;;23.22;27.62
65359;BME280;52491;45.900;6.346;2023-04-15T02:52:40;92914.19;;;23.21;27.49
65359;BME280;52491;45.900;6.346;2023-04-15T02:55:07;92915.00;;;23.22;27.31
65359;BME280;52491;45.900;6.346;2023-04-15T02:57:34;92915.00;;;23.22;27.56
65359;BME280;52491;45.900;6.346;2023-04-15T03:00:02;92912.34;;;23.22;27.53
65359;BME280;52491;45.900;6.346;2023-04-15T03:02:38;92916.06;;;23.21;27.43
65359;BME280;52491;45.900;6.346;2023-04-15T03:05:04;92909.97;;;23.20;27.70
65359;BME280;52491;45.900;6.346;2023-04-15T03:07:33;92908.09;;;23.21;27.63
65359;BME280;52491;45.900;6.346;2023-04-15T03:09:58;92906.22;;;23.21;27.56
65359;BME280;52491;45.900;6.346;2023-04-15T03:12:24;92903.56;;;23.21;27.65
65359;BME280;52491;45.900;6.346;2023-04-15T03:14:50;92907.03;;;23.22;27.54
65359;BME280;52491;45.900;6.346;2023-04-15T03:17:15;92900.63;;;23.23;27.60
65359;BME280;52491;45.900;6.346;2023-04-15T03:19:41;92901.41;;;23.23;27.65
65359;BME280;52491;45.900;6.346;2023-04-15T03:22:06;92893.44;;;23.23;27.70
65359;BME280;52491;45.900;6.346;2023-04-15T03:24:32;92900.34;;;23.24;27.60
65359;BME280;52491;45.900;6.346;2023-04-15T03:26:58;92888.13;;;23.23;27.70
65359;BME280;52491;45.900;6.346;2023-04-15T03:29:23;92891.31;;;23.26;27.66
65359;BME280;52491;45.900;6.346;2023-04-15T03:31:49;92896.63;;;23.26;27.86
65359;BME280;52491;45.900;6.346;2023-04-15T03:34:14;92896.31;;;23.27;27.63
65359;BME280;52491;45.900;6.346;2023-04-15T03:36:40;92898.97;;;23.27;27.59
65359;BME280;52491;45.900;6.346;2023-04-15T03:39:06;92904.03;;;23.29;27.75
65359;BME280;52491;45.900;6.346;2023-04-15T03:41:32;92895.28;;;23.28;27.64
65359;BME280;52491;45.900;6.346;2023-04-15T03:43:57;92896.31;;;23.27;27.67
65359;BME280;52491;45.900;6.346;2023-04-15T03:46:23;92901.38;;;23.29;27.60
65359;BME280;52491;45.900;6.346;2023-04-15T03:48:49;92904.03;;;23.29;27.58
65359;BME280;52491;45.900;6.346;2023-04-15T03:51:14;92898.72;;;23.29;27.64
65359;BME280;52491;45.900;6.346;2023-04-15T03:53:40;92907.50;;;23.29;27.71
65359;BME280;52491;45.900;6.346;2023-04-15T03:56:06;92906.69;;;23.29;27.60
65359;BME280;52491;45.900;6.346;2023-04-15T03:58:31;92903.78;;;23.30;27.63
65359;BME280;52491;45.900;6.346;2023-04-15T04:00:57;92901.13;;;23.30;27.60
65359;BME280;52491;45.900;6.346;2023-04-15T04:03:22;92902.97;;;23.30;27.76
65359;BME280;52491;45.900;6.346;2023-04-15T04:05:48;92897.38;;;23.31;27.65
65359;BME280;52491;45.900;6.346;2023-04-15T04:08:13;92901.13;;;23.30;27.68
65359;BME280;52491;45.900;6.346;2023-04-15T04:10:41;92892.06;;;23.31;27.63
65359;BME280;52491;45.900;6.346;2023-04-15T04:13:06;92893.38;;;23.34;27.67
65359;BME280;52491;45.900;6.346;2023-04-15T04:15:32;92895.22;;;23.33;27.53
65359;BME280;52491;45.900;6.346;2023-04-15T04:17:58;92899.47;;;23.34;27.59
65359;BME280;52491;45.900;6.346;2023-04-15T04:20:23;92902.41;;;23.33;27.59
65359;BME280;52491;45.900;6.346;2023-04-15T04:22:49;92901.34;;;23.34;27.51
65359;BME280;52491;45.900;6.346;2023-04-15T04:25:14;92904.78;;;23.34;27.67
65359;BME280;52491;45.900;6.346;2023-04-15T04:27:40;92896.81;;;23.34;27.61
65359;BME280;52491;45.900;6.346;2023-04-15T04:30:07;92899.72;;;23.33;27.68
65359;BME280;52491;45.900;6.346;2023-04-15T04:32:32;92899.72;;;23.33;27.64
65359;BME280;52491;45.900;6.346;2023-04-15T04:34:58;92897.91;;;23.33;27.69
65359;BME280;52491;45.900;6.346;2023-04-15T04:37:23;92902.13;;;23.34;27.59
65359;BME280;52491;45.900;6.346;2023-04-15T04:39:49;92902.91;;;23.35;27.61
65359;BME280;52491;45.900;6.346;2023-04-15T04:42:15;92907.44;;;23.34;27.63
65359;BME280;52491;45.900;6.346;2023-04-15T04:44:41;92910.63;;;23.36;27.73
65359;BME280;52491;45.900;6.346;2023-04-15T04:47:06;92910.91;;;23.35;27.75
65359;BME280;52491;45.900;6.346;2023-04-15T04:49:32;92908.25;;;23.35;27.69
65359;BME280;52491;45.900;6.346;2023-04-15T04:51:58;92913.28;;;23.36;27.77
65359;BME280;52491;45.900;6.346;2023-04-15T04:54:24;92910.63;;;23.36;27.68
65359;BME280;52491;45.900;6.346;2023-04-15T04:56:50;92904.22;;;23.37;27.61
65359;BME280;52491;45.900;6.346;2023-04-15T04:59:16;92914.88;;;23.37;27.57
65359;BME280;52491;45.900;6.346;2023-04-15T05:01:41;92913.00;;;23.38;27.77
65359;BME280;52491;45.900;6.346;2023-04-15T05:04:07;92918.06;;;23.39;27.61
65359;BME280;52491;45.900;6.346;2023-04-15T05:06:32;92912.72;;;23.39;27.61
65359;BME280;52491;45.900;6.346;2023-04-15T05:09:00;92910.06;;;23.39;27.57
65359;BME280;52491;45.900;6.346;2023-04-15T05:11:25;92914.31;;;23.40;27.59
65359;BME280;52491;45.900;6.346;2023-04-15T05:13:52;92915.09;;;23.41;27.59
65359;BME280;52491;45.900;6.346;2023-04-15T05:16:18;92914.31;;;23.40;27.60
65359;BME280;52491;45.900;6.346;2023-04-15T05:18:44;92909.78;;;23.41;27.81
65359;BME280;52491;45.900;6.346;2023-04-15T05:21:09;92903.66;;;23.40;27.60
65359;BME280;52491;45.900;6.346;2023-04-15T05:23:35;92902.63;;;23.41;27.58
65359;BME280;52491;45.900;6.346;2023-04-15T05:26:01;92903.09;;;23.43;27.56
65359;BME280;52491;45.900;6.346;2023-04-15T05:28:27;92902.31;;;23.43;27.47
65359;BME280;52491;45.900;6.346;2023-04-15T05:30:53;92901.78;;;23.41;27.60
65359;BME280;52491;45.900;6.346;2023-04-15T05:33:18;92894.34;;;23.43;27.38
65359;BME280;52491;45.900;6.346;2023-04-15T05:35:44;92896.22;;;23.42;27.68
65359;BME280;52491;45.900;6.346;2023-04-15T05:38:10;92895.41;;;23.42;27.67
65359;BME280;52491;45.900;6.346;2023-04-15T05:40:36;92890.88;;;23.42;27.66
65359;BME280;52491;45.900;6.346;2023-04-15T05:43:01;92886.88;;;23.45;27.52
65359;BME280;52491;45.900;6.346;2023-04-15T05:45:27;92887.16;;;23.43;27.76
65359;BME280;52491;45.900;6.346;2023-04-15T05:47:53;92889.03;;;23.43;27.70
65359;BME280;52491;45.900;6.346;2023-04-15T05:50:19;92892.47;;;23.43;27.72
65359;BME280;52491;45.900;6.346;2023-04-15T05:52:45;92884.47;;;23.43;27.63
65359;BME280;52491;45.900;6.346;2023-04-15T05:55:11;92882.63;;;23.44;27.58
65359;BME280;52491;45.900;6.346;2023-04-15T05:57:37;92882.63;;;23.44;27.76
65359;BME280;52491;45.900;6.346;2023-04-15T06:00:04;92876.25;;;23.45;27.80
65359;BME280;52491;45.900;6.346;2023-04-15T06:02:30;92874.63;;;23.44;27.72
65359;BME280;52491;45.900;6.346;2023-04-15T06:04:56;92879.69;;;23.45;27.66
65359;BME280;52491;45.900;6.346;2023-04-15T06:07:22;92869.03;;;23.45;27.76
65359;BME280;52491;45.900;6.346;2023-04-15T06:09:48;92878.09;;;23.44;27.93
65359;BME280;52491;45.900;6.346;2023-04-15T06:12:14;92881.56;;;23.45;27.86
65359;BME280;52491;45.900;6.346;2023-04-15T06:14:40;92887.44;;;23.42;27.88
65359;BME280;52491;45.900;6.346;2023-04-15T06:17:05;92897.28;;;23.41;28.00
65359;BME280;52491;45.900;6.346;2023-04-15T06:19:32;92901.00;;;23.40;28.27
65359;BME280;52491;45.900;6.346;2023-04-15T06:21:58;92908.19;;;23.40;28.30
65359;BME280;52491;45.900;6.346;2023-04-15T06:24:23;92908.19;;;23.40;28.24
65359;BME280;52491;45.900;6.346;2023-04-15T06:26:49;92916.19;;;23.40;28.35
65359;BME280;52491;45.900;6.346;2023-04-15T06:29:15;92912.72;;;23.39;28.28
65359;BME280;52491;45.900;6.346;2023-04-15T06:31:40;92916.97;;;23.40;28.17
65359;BME280;52491;45.900;6.346;2023-04-15T06:34:06;92923.88;;;23.41;28.12
65359;BME280;52491;45.900;6.346;2023-04-15T06:36:32;92920.94;;;23.43;28.23
65359;BME280;52491;45.900;6.346;2023-04-15T06:38:58;92920.41;;;23.41;28.13
65359;BME280;52491;45.900;6.346;2023-04-15T06:41:23;92925.72;;;23.41;28.32
65359;BME280;52491;45.900;6.346;2023-04-15T06:43:49;92935.59;;;23.40;28.25
65359;BME280;52491;45.900;6.346;2023-04-15T06:46:15;92934.00;;;23.39;28.24
65359;BME280;52491;45.900;6.346;2023-04-15T06:48:41;92927.34;;;23.42;28.32
65359;BME280;52491;45.900;6.346;2023-04-15T06:51:06;92928.41;;;23.41;28.22
65359;BME280;52491;45.900;6.346;2023-04-15T06:53:32;92924.94;;;23.40;28.33
65359;BME280;52491;45.900;6.346;2023-04-15T06:55:58;92928.13;;;23.42;28.58
65359;BME280;52491;45.900;6.346;2023-04-15T06:58:23;92922.50;;;23.44;29.42
65359;BME280;52491;45.900;6.346;2023-04-15T07:00:49;92929.69;;;23.43;30.60
65359;BME280;52491;45.900;6.346;2023-04-15T07:03:15;92926.00;;;23.44;30.99
65359;BME280;52491;45.900;6.346;2023-04-15T07:05:40;92931.31;;;23.44;30.96
65359;BME280;52491;45.900;6.346;2023-04-15T07:08:06;92937.41;;;23.45;30.82
65359;BME280;52491;45.900;6.346;2023-04-15T07:10:35;92935.53;;;23.45;30.60
65359;BME280;52491;45.900;6.346;2023-04-15T07:13:03;92948.06;;;23.45;30.35
65359;BME280;52491;45.900;6.346;2023-04-15T07:15:28;92952.59;;;23.44;30.62
65359;BME280;52491;45.900;6.346;2023-04-15T07:17:54;92941.13;;;23.44;30.40
65359;BME280;52491;45.900;6.346;2023-04-15T07:20:20;92945.66;;;23.43;30.08
65359;BME280;52491;45.900;6.346;2023-04-15T07:22:45;92952.59;;;23.44;30.43
65359;BME280;52491;45.900;6.346;2023-04-15T07:25:11;92959.75;;;23.44;30.26
65359;BME280;52491;45.900;6.346;2023-04-15T07:27:37;92954.72;;;23.42;30.44
65359;BME280;52491;45.900;6.346;2023-04-15T07:30:02;92955.50;;;23.43;30.33
65359;BME280;52491;45.900;6.346;2023-04-15T07:32:28;92960.84;;;23.43;30.20
65359;BME280;52491;45.900;6.346;2023-04-15T07:34:54;92965.38;;;23.42;30.27
65359;BME280;52491;45.900;6.346;2023-04-15T07:37:19;92965.38;;;23.42;30.33
65359;BME280;52491;45.900;6.346;2023-04-15T07:39:45;92972.25;;;23.43;30.26
65359;BME280;52491;45.900;6.346;2023-04-15T07:42:10;92962.72;;;23.42;30.16
65359;BME280;52491;45.900;6.346;2023-04-15T07:44:36;92965.06;;;23.44;29.96
65359;BME280;52491;45.900;6.346;2023-04-15T07:47:02;92968.81;;;23.43;29.81
65359;BME280;52491;45.900;6.346;2023-04-15T07:49:28;92960.03;;;23.42;29.92
65359;BME280;52491;45.900;6.346;2023-04-15T07:51:54;92960.03;;;23.42;29.84
65359;BME280;52491;45.900;6.346;2023-04-15T07:54:21;92970.16;;;23.40;29.68
65359;BME280;52491;45.900;6.346;2023-04-15T07:56:47;92974.69;;;23.40;29.53
65359;BME280;52491;45.900;6.346;2023-04-15T07:59:13;92973.66;;;23.36;29.73
65359;BME280;52491;45.900;6.346;2023-04-15T08:01:42;92970.19;;;23.35;29.44
65359;BME280;52491;45.900;6.346;2023-04-15T08:04:08;92981.13;;;23.34;29.37
65359;BME280;52491;45.900;6.346;2023-04-15T08:06:34;92978.47;;;23.34;29.17
65359;BME280;52491;45.900;6.346;2023-04-15T08:09:00;92984.84;;;23.33;29.13
65359;BME280;52491;45.900;6.346;2023-04-15T08:11:26;92980.91;;;23.30;29.08
65359;BME280;52491;45.900;6.346;2023-04-15T08:13:52;92988.06;;;23.30;28.89
65359;BME280;52491;45.900;6.346;2023-04-15T08:16:22;92984.34;;;23.31;28.64
65359;BME280;52491;45.900;6.346;2023-04-15T08:18:50;92984.34;;;23.31;28.82
65359;BME280;52491;45.900;6.346;2023-04-15T08:21:17;92978.72;;;23.32;28.40
65359;BME280;52491;45.900;6.346;2023-04-15T08:23:44;92979.25;;;23.34;28.34
65359;BME280;52491;45.900;6.346;2023-04-15T08:26:11;92975.81;;;23.34;28.37
65359;BME280;52491;45.900;6.346;2023-04-15T08:28:38;92978.19;;;23.35;28.42
65359;BME280;52491;45.900;6.346;2023-04-15T08:31:05;92981.13;;;23.34;28.40
65359;BME280;52491;45.900;6.346;2023-04-15T08:33:30;92984.56;;;23.34;28.36
65359;BME280;52491;45.900;6.346;2023-04-15T08:35:56;92993.09;;;23.31;27.96
65359;BME280;52491;45.900;6.346;2023-04-15T08:38:22;93001.34;;;23.30;28.28
65359;BME280;52491;45.900;6.346;2023-04-15T08:40:48;93005.88;;;23.29;28.43
65359;BME280;52491;45.900;6.346;2023-04-15T08:43:19;93007.50;;;23.30;28.35
65359;BME280;52491;45.900;6.346;2023-04-15T08:45:46;93010.94;;;23.31;28.61
65359;BME280;52491;45.900;6.346;2023-04-15T08:48:14;93017.03;;;23.31;28.72
65359;BME280;52491;45.900;6.346;2023-04-15T08:50:44;93022.38;;;23.31;28.66
65359;BME280;52491;45.900;6.346;2023-04-15T08:53:11;93021.56;;;23.31;28.66
65359;BME280;52491;45.900;6.346;2023-04-15T08:55:43;93022.13;;;23.28;27.23
65359;BME280;52491;45.900;6.346;2023-04-15T08:58:10;93028.09;;;23.09;26.90
65359;BME280;52491;45.900;6.346;2023-04-15T09:00:36;93035.06;;;22.90;26.35
65359;BME280;52491;45.900;6.346;2023-04-15T09:03:05;93033.03;;;22.71;26.14
65359;BME280;52491;45.900;6.346;2023-04-15T09:05:35;93045.56;;;22.55;25.76
65359;BME280;52491;45.900;6.346;2023-04-15T09:08:02;93043.22;;;22.39;25.76
65359;BME280;52491;45.900;6.346;2023-04-15T09:10:28;93046.44;;;22.25;25.49
65359;BME280;52491;45.900;6.346;2023-04-15T09:12:54;93047.50;;;22.14;25.69
65359;BME280;52491;45.900;6.346;2023-04-15T09:15:20;93054.13;;;22.06;25.58
65359;BME280;52491;45.900;6.346;2023-04-15T09:17:47;93059.19;;;22.08;25.89
65359;BME280;52491;45.900;6.346;2023-04-15T09:20:14;93056.78;;;22.11;25.98
65359;BME280;52491;45.900;6.346;2023-04-15T09:22:42;93058.91;;;22.15;26.16
65359;BME280;52491;45.900;6.346;2023-04-15T09:27:54;93067.41;;;22.17;25.96
65359;BME280;52491;45.900;6.346;2023-04-15T09:30:20;93067.16;;;22.23;26.20
65359;BME280;52491;45.900;6.346;2023-04-15T09:32:53;93075.66;;;22.30;26.15
65359;BME280;52491;45.900;6.346;2023-04-15T09:35:20;93079.63;;;22.38;26.58
65359;BME280;52491;45.900;6.346;2023-04-15T09:37:47;93075.88;;;22.44;26.59
65359;BME280;52491;45.900;6.346;2023-04-15T09:40:13;93088.09;;;22.50;26.74
65359;BME280;52491;45.900;6.346;2023-04-15T09:43:06;93087.00;;;22.56;26.71
65359;BME280;52491;45.900;6.346;2023-04-15T09:45:33;93085.66;;;22.59;26.86
65359;BME280;52491;45.900;6.346;2023-04-15T09:48:14;93095.50;;;22.64;26.86
65359;BME280;52491;45.900;6.346;2023-04-15T09:50:41;93092.28;;;22.67;27.07
65359;BME280;52491;45.900;6.346;2023-04-15T09:53:10;93085.34;;;22.71;26.94
65359;BME280;52491;45.900;6.346;2023-04-15T09:55:36;93097.31;;;22.73;27.14
65359;BME280;52491;45.900;6.346;2023-04-15T09:58:08;93095.19;;;22.75;26.95
65359;BME280;52491;45.900;6.346;2023-04-15T10:00:35;93104.72;;;22.76;27.32
65359;BME280;52491;45.900;6.346;2023-04-15T10:03:04;93108.47;;;22.81;27.37
65359;BME280;52491;45.900;6.346;2023-04-15T10:05:30;93109.00;;;22.83;27.32
65359;BME280;52491;45.900;6.346;2023-04-15T10:07:57;93109.50;;;22.85;27.38
65359;BME280;52491;45.900;6.346;2023-04-15T10:10:23;93100.19;;;22.87;27.35
65359;BME280;52491;45.900;6.346;2023-04-15T10:12:51;93113.47;;;22.87;27.74
65359;BME280;52491;45.900;6.346;2023-04-15T10:15:17;93121.97;;;22.89;27.74
65359;BME280;52491;45.900;6.346;2023-04-15T10:17:43;93123.56;;;22.90;27.79
65359;BME280;52491;45.900;6.346;2023-04-15T10:20:10;93133.13;;;22.91;27.91
65359;BME280;52491;45.900;6.346;2023-04-15T10:22:37;93137.91;;;22.94;28.06
65359;BME280;52491;45.900;6.346;2023-04-15T10:25:05;93128.06;;;22.95;27.92
65359;BME280;52491;45.900;6.346;2023-04-15T10:27:32;93135.00;;;22.96;27.89
65359;BME280;52491;45.900;6.346;2023-04-15T10:29:59;93143.75;;;22.96;28.02
65359;BME280;52491;45.900;6.346;2023-04-15T10:32:25;93143.75;;;22.96;28.14
65359;BME280;52491;45.900;6.346;2023-04-15T10:34:52;93151.47;;;22.98;28.20
65359;BME280;52491;45.900;6.346;2023-04-15T10:37:24;93152.81;;;23.00;28.13
65359;BME280;52491;45.900;6.346;2023-04-15T10:39:57;93154.66;;;23.00;28.29
65359;BME280;52491;45.900;6.346;2023-04-15T10:42:23;93155.47;;;23.00;28.35
65359;BME280;52491;45.900;6.346;2023-04-15T10:44:50;93153.34;;;23.03;28.34
65359;BME280;52491;45.900;6.346;2023-04-15T10:47:20;93153.84;;;23.05;28.40
65359;BME280;52491;45.900;6.346;2023-04-15T10:49:48;93154.13;;;23.03;28.39
65359;BME280;52491;45.900;6.346;2023-04-15T10:52:16;93152.50;;;23.02;28.72
65359;BME280;52491;45.900;6.346;2023-04-15T10:54:42;93162.34;;;23.01;28.81
65359;BME280;52491;45.900;6.346;2023-04-15T10:57:14;93157.03;;;23.01;28.69
65359;BME280;52491;45.900;6.346;2023-04-15T10:59:59;93169.28;;;23.03;28.86
65359;BME280;52491;45.900;6.346;2023-04-15T11:05:05;93170.88;;;23.04;29.08
65359;BME280;52491;45.900;6.346;2023-04-15T11:07:39;93177.75;;;23.05;29.25
65359;BME280;52491;45.900;6.346;2023-04-15T11:12:55;93186.28;;;23.07;29.17
65359;BME280;52491;45.900;6.346;2023-04-15T11:15:28;93188.69;;;23.08;29.05
65359;BME280;52491;45.900;6.346;2023-04-15T11:18:19;93185.72;;;23.10;29.33
65359;BME280;52491;45.900;6.346;2023-04-15T11:23:16;93191.03;;;23.10;29.43
65359;BME280;52491;45.900;6.346;2023-04-15T11:25:42;93196.09;;;23.11;29.56
65359;BME280;52491;45.900;6.346;2023-04-15T11:28:08;93202.75;;;23.14;29.20
65359;BME280;52491;45.900;6.346;2023-04-15T11:30:35;93189.47;;;23.14;29.10
65359;BME280;52491;45.900;6.346;2023-04-15T11:33:09;93197.94;;;23.16;29.08
65359;BME280;52491;45.900;6.346;2023-04-15T11:35:37;93191.03;;;23.15;28.98
65359;BME280;52491;45.900;6.346;2023-04-15T11:38:08;93199.00;;;23.15;29.13
65359;BME280;52491;45.900;6.346;2023-04-15T11:40:35;93199.81;;;23.15;28.98
65359;BME280;52491;45.900;6.346;2023-04-15T11:43:05;93195.03;;;23.17;29.29
65359;BME280;52491;45.900;6.346;2023-04-15T11:45:31;93202.22;;;23.17;29.36
65359;BME280;52491;45.900;6.346;2023-04-15T11:48:10;93197.69;;;23.17;29.31
65359;BME280;52491;45.900;6.346;2023-04-15T11:50:37;93187.56;;;23.19;29.81
65359;BME280;52491;45.900;6.346;2023-04-15T11:53:05;93194.22;;;23.22;30.47
65359;BME280;52491;45.900;6.346;2023-04-15T11:55:41;93191.00;;;23.25;30.72
65359;BME280;52491;45.900;6.346;2023-04-15T11:58:28;93192.34;;;23.28;31.33
65359;BME280;52491;45.900;6.346;2023-04-15T12:00:58;93189.38;;;23.29;31.29
65359;BME280;52491;45.900;6.346;2023-04-15T12:03:39;93193.09;;;23.33;31.69
65359;BME280;52491;45.900;6.346;2023-04-15T12:06:19;93191.78;;;23.36;31.79
65359;BME280;52491;45.900;6.346;2023-04-15T12:13:54;93198.91;;;23.45;32.49
65359;BME280;52491;45.900;6.346;2023-04-15T12:16:22;93199.66;;;23.51;32.32
65359;BME280;52491;45.900;6.346;2023-04-15T12:18:59;93200.44;;;23.57;32.20
65359;BME280;52491;45.900;6.346;2023-04-15T12:21:32;93199.38;;;23.58;32.42
65359;BME280;52491;45.900;6.346;2023-04-15T12:24:03;93195.38;;;23.60;32.40
65359;BME280;52491;45.900;6.346;2023-04-15T12:26:47;93196.69;;;23.63;32.34
65359;BME280;52491;45.900;6.346;2023-04-15T12:29:16;93200.66;;;23.65;32.51
65359;BME280;52491;45.900;6.346;2023-04-15T12:32:03;93196.66;;;23.68;32.19
65359;BME280;52491;45.900;6.346;2023-04-15T12:34:31;93200.69;;;23.71;32.39
65359;BME280;52491;45.900;6.346;2023-04-15T12:37:00;93206.75;;;23.76;32.50
65359;BME280;52491;45.900;6.346;2023-04-15T12:39:27;93199.03;;;23.80;32.56
65359;BME280;52491;45.900;6.346;2023-04-15T12:41:54;93195.53;;;23.84;31.87
65359;BME280;52491;45.900;6.346;2023-04-15T12:44:22;93194.72;;;23.89;31.87
65359;BME280;52491;45.900;6.346;2023-04-15T12:46:49;93191.50;;;23.92;31.75
65359;BME280;52491;45.900;6.346;2023-04-15T12:49:15;93192.81;;;23.95;31.88
65359;BME280;52491;45.900;6.346;2023-04-15T12:51:44;93198.66;;;23.97;31.90
65359;BME280;52491;45.900;6.346;2023-04-15T12:54:09;93195.72;;;23.98;31.87
65359;BME280;52491;45.900;6.346;2023-04-15T12:56:35;93198.91;;;24.00;31.88
65359;BME280;52491;45.900;6.346;2023-04-15T12:59:01;93195.69;;;24.03;31.79
65359;BME280;52491;45.900;6.346;2023-04-15T13:01:26;93203.91;;;24.07;31.83
65359;BME280;52491;45.900;6.346;2023-04-15T13:03:52;93203.09;;;24.11;31.74
65359;BME280;52491;45.900;6.346;2023-04-15T13:06:18;93198.28;;;24.13;32.00
65359;BME280;52491;45.900;6.346;2023-04-15T13:08:43;93212.91;;;24.16;31.73
65359;BME280;52491;45.900;6.346;2023-04-15T13:11:09;93206.53;;;24.17;31.94
65359;BME280;52491;45.900;6.346;2023-04-15T13:13:35;93211.28;;;24.20;31.81
65359;BME280;52491;45.900;6.346;2023-04-15T13:16:00;93213.41;;;24.23;32.00